Time;durP1;ratioP1;P1;durP2;ratioP2;P2;SDS_P1;SDS_P2;PMS_P1;PMS_P2;Temp;Humidity;BMP_temperature;BMP_pressure;BME280_temperature;BME280_humidity;BME280_pressure;Samples;Min_cycle;Max_cycle;Signal;HPM_P1;HPM_P2
2023/04/22 00:00:14;;;;;;;12.23;7.68;;;7.70;99.90;;;-144.05;80.82;56904.06;5094221;28;20024;-76
2023/04/22 00:02:40;;;;;;;12.93;7.95;;;7.70;99.90;;;-144.05;83.21;56914.69;5093544;28;20028;-77
2023/04/22 00:05:07;;;;;;;13.30;9.02;;;7.80;99.90;;;-144.05;82.35;56904.06;5093637;28;20211;-75
2023/04/22 00:07:33;;;;;;;14.60;9.35;;;7.70;99.90;;;-144.05;82.28;56927.41;5094604;28;20020;-77
2023/04/22 00:09:59;;;;;;;17.75;10.60;;;7.80;99.90;;;-144.05;83.37;56921.06;5094289;28;20028;-77
2023/04/22 00:12:25;;;;;;;20.00;11.25;;;8.00;99.90;;;-144.05;83.31;56910.44;5094726;28;20024;-77
2023/04/22 00:14:51;;;;;;;13.88;8.90;;;8.10;99.90;;;-144.05;83.08;56921.06;5093397;28;20031;-76
2023/04/22 00:17:17;;;;;;;14.30;8.98;;;8.10;99.90;;;-144.05;82.67;56923.19;5093810;28;20032;-77
2023/04/22 00:19:43;;;;;;;13.57;7.82;;;8.00;99.90;;;-144.05;82.59;56933.78;5093646;28;20043;-75
2023/04/22 00:22:09;;;;;;;12.85;9.07;;;7.90;99.90;;;-144.05;83.00;56925.28;5093425;28;20028;-77
2023/04/22 00:24:34;;;;;;;12.93;7.10;;;7.80;99.90;;;-144.05;82.34;56927.41;5092269;28;20031;-77
2023/04/22 00:27:00;;;;;;;14.75;9.38;;;7.60;99.90;;;-144.05;82.61;56912.56;5093422;28;20024;-75
2023/04/22 00:29:26;;;;;;;14.35;9.10;;;7.60;99.90;;;-144.05;82.97;56933.78;5093254;28;20108;-76
2023/04/22 00:31:52;;;;;;;16.23;9.43;;;7.60;99.90;;;-144.05;83.33;56923.19;5093342;28;20078;-75
2023/04/22 00:34:18;;;;;;;13.27;8.80;;;7.80;99.90;;;-144.05;83.23;56912.56;5093307;28;20039;-75
2023/04/22 00:36:45;;;;;;;17.63;8.27;;;7.80;99.90;;;-144.05;82.57;56921.06;5093371;28;20085;-77
2023/04/22 00:39:11;;;;;;;14.20;7.22;;;7.60;99.90;;;-144.05;82.99;56931.66;5093454;28;20425;-75
2023/04/22 00:41:39;;;;;;;11.38;7.45;;;7.50;99.90;;;-144.05;82.87;56925.28;5093510;28;20051;-77
2023/04/22 00:44:11;;;;;;;12.73;7.00;;;7.50;99.90;;;-144.05;82.98;56940.16;5093289;28;20051;-77
2023/04/22 00:46:38;;;;;;;10.75;6.30;;;7.40;99.90;;;-144.05;83.09;56921.06;5091930;28;20442;-75
2023/04/22 00:49:06;;;;;;;11.80;7.03;;;7.40;99.90;;;-144.05;83.44;56916.81;5093039;28;20585;-77
2023/04/22 00:51:33;;;;;;;14.40;7.20;;;7.40;99.90;;;-144.05;83.17;56889.19;5094065;28;20036;-74
2023/04/22 00:54:00;;;;;;;10.38;6.78;;;7.50;99.90;;;-144.05;83.34;56938.03;5093093;28;20429;-76
2023/04/22 00:56:28;;;;;;;12.20;7.70;;;7.40;99.90;;;-144.05;83.32;56955.03;5093165;28;20371;-74
2023/04/22 00:58:56;;;;;;;10.30;6.57;;;7.50;99.90;;;-144.05;83.17;56923.19;5092960;28;20054;-77
2023/04/22 01:01:22;;;;;;;12.38;7.00;;;7.60;99.90;;;-144.05;83.57;56946.53;5093348;28;20024;-75
2023/04/22 01:03:51;;;;;;;12.95;8.20;;;7.60;99.90;;;-144.05;83.42;56931.66;5092657;28;20047;-77
2023/04/22 01:06:22;;;;;;;10.00;6.80;;;7.60;99.90;;;-144.05;82.93;56914.69;5092765;28;20039;-77
2023/04/22 01:08:47;;;;;;;10.80;7.15;;;7.60;99.90;;;-144.05;83.16;56901.94;5091741;28;20130;-77
2023/04/22 01:11:14;;;;;;;13.15;7.35;;;7.50;99.90;;;-144.05;83.31;56940.16;5092795;28;20051;-75
2023/04/22 01:13:40;;;;;;;11.43;7.93;;;7.40;99.90;;;-144.05;83.77;56946.53;5092614;28;20028;-74
2023/04/22 01:16:08;;;;;;;13.00;7.50;;;7.50;99.90;;;-144.05;83.67;56916.81;5092549;28;20028;-74
2023/04/22 01:18:37;;;;;;;10.48;7.00;;;7.60;99.90;;;-144.05;83.42;56929.53;5091354;28;20542;-75
2023/04/22 01:21:05;;;;;;;10.02;7.18;;;7.60;99.90;;;-144.05;83.51;56916.81;5092265;28;20034;-77
2023/04/22 01:23:32;;;;;;;11.48;7.07;;;7.60;99.90;;;-144.05;83.36;56931.66;5091042;28;20073;-75
2023/04/22 01:25:59;;;;;;;10.25;6.40;;;7.60;99.90;;;-144.05;83.72;56914.69;5092706;28;20027;-75
2023/04/22 01:28:25;;;;;;;10.18;6.60;;;7.60;99.90;;;-144.05;83.52;56918.94;5091097;28;20042;-76
2023/04/22 01:30:52;;;;;;;9.73;6.90;;;7.50;99.90;;;-144.05;83.52;56927.41;5090980;28;20058;-75
2023/04/22 01:33:18;;;;;;;12.57;7.63;;;7.50;99.90;;;-144.05;83.70;56944.41;5074253;28;20024;-75
2023/04/22 01:35:45;;;;;;;11.52;6.93;;;7.50;99.90;;;-144.05;83.86;56916.81;5092208;28;20028;-76
2023/04/22 01:38:12;;;;;;;12.82;8.15;;;7.60;99.90;;;-144.05;83.84;56916.81;5074102;28;20034;-75
2023/04/22 01:40:38;;;;;;;12.15;6.28;;;7.60;99.90;;;-144.05;83.28;56938.03;5092328;28;20109;-77
2023/04/22 01:43:05;;;;;;;10.43;7.07;;;7.60;99.90;;;-144.05;83.64;56927.41;5092350;28;20040;-76
2023/04/22 01:45:31;;;;;;;13.27;7.32;;;7.60;99.90;;;-144.05;83.45;56938.03;5092243;28;20514;-75
2023/04/22 01:47:57;;;;;;;9.77;6.82;;;7.60;99.90;;;-144.05;83.46;56925.28;5074333;28;20154;-75
2023/04/22 01:50:24;;;;;;;11.60;7.43;;;7.60;99.90;;;-144.05;83.20;56952.91;5073897;28;20027;-77
2023/04/22 01:52:51;;;;;;;11.80;7.13;;;7.70;99.90;;;-144.05;82.83;56942.28;5091562;28;20475;-75
2023/04/22 01:55:17;;;;;;;8.63;6.70;;;7.70;99.90;;;-144.05;82.85;56938.03;5091769;28;20051;-74
2023/04/22 01:57:43;;;;;;;12.32;7.20;;;7.70;99.90;;;-144.05;82.63;56940.16;5091675;28;20518;-76
2023/04/22 02:00:10;;;;;;;10.60;6.60;;;7.70;99.90;;;-144.05;82.71;56940.16;5091528;28;20483;-75
2023/04/22 02:02:36;;;;;;;11.40;7.30;;;7.70;99.90;;;-144.05;82.72;56921.06;5091574;28;20467;-74
2023/04/22 02:05:05;;;;;;;11.00;6.07;;;7.70;99.90;;;-144.05;82.94;56921.06;5091553;28;20098;-77
2023/04/22 02:07:30;;;;;;;8.07;5.90;;;7.70;99.90;;;-144.05;82.68;56918.94;5091928;28;20047;-78
2023/04/22 02:09:56;;;;;;;8.80;5.72;;;7.70;99.90;;;-144.05;82.84;56923.19;5091308;28;20479;-75
2023/04/22 02:12:22;;;;;;;9.43;5.55;;;7.80;99.90;;;-144.05;82.21;56906.19;5091646;28;20039;-75
2023/04/22 02:14:48;;;;;;;10.05;6.10;;;7.80;99.90;;;-144.05;82.29;56931.66;5091339;28;20032;-74
2023/04/22 02:17:16;;;;;;;10.00;6.03;;;7.80;99.90;;;-144.05;82.10;56942.28;5090004;28;20028;-75
2023/04/22 02:19:42;;;;;;;7.55;5.43;;;7.80;99.90;;;-144.05;82.26;56923.19;5091355;28;20130;-74
2023/04/22 02:22:09;;;;;;;12.40;5.75;;;7.90;99.90;;;-144.05;82.18;56931.66;5091414;28;20037;-74
2023/04/22 02:24:35;;;;;;;8.48;5.90;;;7.90;99.90;;;-144.05;81.63;56925.28;5092687;28;20122;-75
2023/04/22 02:27:01;;;;;;;9.35;5.45;;;7.90;99.90;;;-144.05;81.52;56901.94;5095433;28;20107;-77
2023/04/22 02:29:27;;;;;;;9.45;5.75;;;7.90;99.90;;;-144.05;81.16;56929.53;5095451;28;20020;-76
2023/04/22 02:31:53;;;;;;;9.70;6.00;;;7.90;99.90;;;-144.05;81.29;56912.56;5094998;28;20036;-76
2023/04/22 02:34:19;;;;;;;11.05;6.68;;;7.90;99.90;;;-144.05;81.26;56904.06;5095426;28;20501;-74
2023/04/22 02:36:45;;;;;;;8.05;5.22;;;7.90;99.90;;;-144.05;81.19;56910.44;5094995;28;20089;-75
2023/04/22 02:39:11;;;;;;;8.70;5.22;;;7.90;99.90;;;-144.05;81.27;56921.06;5093399;28;20475;-75
2023/04/22 02:41:37;;;;;;;10.75;5.97;;;7.90;99.90;;;-144.05;81.36;56921.06;5094770;28;20039;-75
2023/04/22 02:44:02;;;;;;;11.55;6.38;;;7.90;99.90;;;-144.05;81.69;56935.91;5094897;28;20047;-76
2023/04/22 02:46:28;;;;;;;9.32;5.82;;;7.90;99.90;;;-144.05;81.60;56927.41;5094808;28;20391;-76
2023/04/22 02:48:54;;;;;;;7.78;5.50;;;7.80;99.90;;;-144.05;81.47;56921.06;5094582;28;20032;-75
2023/04/22 02:51:20;;;;;;;7.80;5.35;;;7.80;99.90;;;-144.05;81.76;56889.19;5094708;28;20020;-75
2023/04/22 02:53:46;;;;;;;9.23;5.68;;;7.80;99.90;;;-144.05;81.89;56921.06;5094549;28;20020;-76
2023/04/22 02:56:12;;;;;;;8.80;5.82;;;7.80;99.90;;;-144.05;82.44;56916.81;5094910;28;20031;-75
2023/04/22 02:58:38;;;;;;;9.95;5.43;;;7.90;99.90;;;-144.05;82.97;56893.44;5094521;28;20028;-75
2023/04/22 03:01:04;;;;;;;7.72;5.25;;;8.10;99.90;;;-144.05;82.90;56918.94;5094580;28;20039;-75
2023/04/22 03:03:30;;;;;;;6.47;4.80;;;8.30;99.90;;;-144.05;81.74;56929.53;5093108;28;20437;-75
2023/04/22 03:05:56;;;;;;;5.50;3.95;;;8.50;99.90;;;-144.05;81.10;56872.19;5094760;28;20035;-76
2023/04/22 03:08:22;;;;;;;5.85;4.50;;;8.80;99.90;;;-144.05;79.08;56918.94;5094531;28;20052;-75
2023/04/22 03:10:48;;;;;;;5.97;3.97;;;9.10;99.90;;;-144.05;77.47;56935.91;5092963;28;20446;-75
2023/04/22 03:13:14;;;;;;;8.00;3.95;;;9.30;99.90;;;-144.05;75.28;56901.94;5094590;28;20028;-75
2023/04/22 03:15:40;;;;;;;5.65;3.70;;;9.50;99.90;;;-144.05;74.69;56908.31;5094227;28;20449;-73
2023/04/22 03:18:07;;;;;;;5.47;3.30;;;9.60;99.90;;;-144.05;74.36;56912.56;5092896;28;20157;-75
2023/04/22 03:20:35;;;;;;;6.28;3.40;;;9.70;99.90;;;-144.05;73.75;56904.06;5094537;28;20028;-75
2023/04/22 03:23:01;;;;;;;5.03;3.55;;;9.70;99.90;;;-144.05;73.17;56912.56;5094083;28;20402;-75
2023/04/22 03:25:27;;;;;;;6.07;3.70;;;9.80;99.90;;;-144.05;72.24;56899.81;5094246;28;20402;-75
2023/04/22 03:27:52;;;;;;;5.07;3.20;;;10.00;99.90;;;-144.05;71.38;56929.53;5094507;28;20103;-77
2023/04/22 03:30:19;;;;;;;3.30;2.80;;;10.10;99.90;;;-144.05;70.32;56906.19;5094288;28;20043;-75
2023/04/22 03:32:44;;;;;;;4.40;3.13;;;10.30;99.90;;;-144.05;70.18;56916.81;5094144;28;20349;-75
2023/04/22 03:35:10;;;;;;;5.95;3.08;;;10.30;99.90;;;-144.05;69.46;56910.44;5075723;28;20027;-75
2023/04/22 03:37:36;;;;;;;5.30;3.30;;;10.50;99.90;;;-144.05;68.99;56904.06;5093410;28;20473;-74
2023/04/22 03:40:04;;;;;;;4.82;3.10;;;10.50;99.90;;;-144.05;68.84;56906.19;5093911;28;20051;-75
2023/04/22 03:42:30;;;;;;;6.00;2.97;;;10.60;99.90;;;-144.05;68.27;56910.44;5094379;28;20028;-75
2023/04/22 03:44:56;;;;;;;3.95;2.85;;;10.70;99.90;;;-144.05;67.91;56874.31;5093045;28;20028;-76
2023/04/22 03:47:22;;;;;;;3.92;2.97;;;10.70;99.90;;;-144.05;67.56;56899.81;5094367;28;20115;-77
2023/04/22 03:49:48;;;;;;;3.83;2.80;;;10.80;99.90;;;-144.05;66.99;56891.31;5094793;28;20142;-77
2023/04/22 03:52:14;;;;;;;3.88;3.15;;;10.80;99.90;;;-144.05;66.72;56904.06;5093890;28;20475;-77
2023/04/22 03:54:40;;;;;;;5.32;2.92;;;10.80;99.90;;;-144.05;67.05;56891.31;5094638;28;20074;-75
2023/04/22 03:57:06;;;;;;;5.90;3.25;;;10.70;99.90;;;-144.05;67.13;56912.56;5094329;28;20040;-75
2023/04/22 03:59:31;;;;;;;4.80;3.55;;;10.70;99.90;;;-144.05;66.80;56901.94;5093583;28;20050;-76
2023/04/22 04:01:58;;;;;;;4.15;3.13;;;10.70;99.90;;;-144.05;66.93;56912.56;5093426;28;20386;-76
2023/04/22 04:04:23;;;;;;;6.43;2.90;;;10.70;99.90;;;-144.05;66.78;56916.81;5111467;22;20442;-75
2023/04/22 04:06:50;;;;;;;4.60;3.20;;;10.70;99.90;;;-144.05;66.75;56916.81;5073174;28;20064;-75
2023/04/22 04:09:15;;;;;;;4.82;3.20;;;10.60;99.90;;;-144.05;67.18;56923.19;5072957;28;20024;-77
2023/04/22 04:11:41;;;;;;;5.25;3.20;;;10.60;99.90;;;-144.05;67.15;56921.06;5073198;28;20075;-76
2023/04/22 04:14:08;;;;;;;5.90;3.20;;;10.60;99.90;;;-144.05;67.11;56908.31;5075427;28;20020;-76
2023/04/22 04:16:34;;;;;;;4.00;2.97;;;10.50;99.90;;;-144.05;67.56;56912.56;5093172;28;20027;-75
2023/04/22 04:19:00;;;;;;;6.93;3.15;;;10.50;99.90;;;-144.05;67.46;56921.06;5093106;28;20057;-76
2023/04/22 04:21:26;;;;;;;5.97;3.38;;;10.40;99.90;;;-144.05;67.71;56923.19;5093234;28;20111;-77
2023/04/22 04:23:51;;;;;;;4.80;2.90;;;10.40;99.90;;;-144.05;68.00;56904.06;5092927;28;20028;-76
2023/04/22 04:26:19;;;;;;;4.75;3.47;;;10.30;99.90;;;-144.05;68.05;56901.94;5092865;28;20028;-76
2023/04/22 04:28:46;;;;;;;4.00;3.35;;;10.30;99.90;;;-144.05;68.42;56901.94;5091635;28;20115;-75
2023/04/22 04:31:12;;;;;;;4.78;3.03;;;10.30;99.90;;;-144.05;68.32;56918.94;5092843;28;20024;-75
2023/04/22 04:33:38;;;;;;;10.30;3.72;;;10.30;99.90;;;-144.05;68.47;56910.44;5074496;28;20051;-75
2023/04/22 04:36:04;;;;;;;3.85;3.20;;;10.30;99.90;;;-144.05;68.46;56914.69;5092861;28;20027;-75
2023/04/22 04:38:31;;;;;;;7.57;3.22;;;10.30;99.90;;;-144.05;68.45;56906.19;5092398;28;20391;-76
2023/04/22 04:40:56;;;;;;;3.60;2.90;;;10.30;99.90;;;-144.05;68.31;56925.28;5092580;28;20076;-76
2023/04/22 04:43:24;;;;;;;5.68;3.50;;;10.40;99.90;;;-144.05;68.23;56901.94;5092697;28;20433;-76
2023/04/22 04:45:51;;;;;;;4.25;3.42;;;10.40;99.90;;;-144.05;68.32;56923.19;5092411;28;20111;-75
2023/04/22 04:48:19;;;;;;;4.50;3.00;;;10.30;99.90;;;-144.05;68.11;56897.69;5073469;28;20039;-74
2023/04/22 04:50:46;;;;;;;5.90;2.80;;;10.30;99.90;;;-144.05;68.30;56901.94;5092457;28;20028;-75
2023/04/22 04:53:12;;;;;;;5.10;3.47;;;10.30;99.90;;;-144.05;68.70;56921.06;5092354;28;20028;-76
2023/04/22 04:55:38;;;;;;;6.95;3.15;;;10.30;99.90;;;-144.05;68.64;56910.44;5092341;28;20031;-76
2023/04/22 04:58:04;;;;;;;8.52;3.65;;;10.30;99.90;;;-144.05;68.61;56912.56;5092374;28;20024;-74
2023/04/22 05:00:30;;;;;;;7.05;3.60;;;10.30;99.90;;;-144.05;68.23;56916.81;5092266;28;20527;-76
2023/04/22 05:02:56;;;;;;;5.95;3.60;;;10.30;99.90;;;-144.05;68.27;56912.56;5090907;28;20032;-76
2023/04/22 05:05:22;;;;;;;5.05;3.40;;;10.40;99.90;;;-144.05;68.33;56910.44;5092031;28;20039;-76
2023/04/22 05:07:47;;;;;;;4.15;3.60;;;10.40;99.90;;;-144.05;67.95;56865.81;5074151;28;20111;-76
2023/04/22 05:10:14;;;;;;;5.05;3.47;;;10.40;99.90;;;-144.05;67.52;56891.31;5073891;28;20027;-76
2023/04/22 05:12:40;;;;;;;5.35;3.45;;;10.50;99.90;;;-144.05;67.58;56889.19;5091947;28;20051;-76
2023/04/22 05:15:07;;;;;;;7.10;3.75;;;10.60;99.90;;;-144.05;67.41;56901.94;5092392;28;20101;-74
2023/04/22 05:17:32;;;;;;;5.78;3.58;;;10.60;99.90;;;-144.05;66.92;56914.69;5091836;28;20028;-77
2023/04/22 05:19:58;;;;;;;6.10;3.58;;;10.70;99.90;;;-144.05;66.98;56923.19;5090623;28;20033;-76
2023/04/22 05:22:24;;;;;;;5.53;3.60;;;10.80;99.90;;;-144.05;67.08;56893.44;5091748;28;20024;-76
2023/04/22 05:24:50;;;;;;;5.45;3.70;;;10.80;99.90;;;-144.05;66.60;56863.69;5091806;28;20069;-76
2023/04/22 05:27:16;;;;;;;4.47;3.30;;;10.80;99.90;;;-144.05;66.61;56906.19;5091975;28;20032;-76
2023/04/22 05:29:42;;;;;;;5.93;3.88;;;10.90;99.90;;;-144.05;66.59;56901.94;5091696;28;20079;-76
2023/04/22 05:32:08;;;;;;;4.25;3.40;;;10.90;99.90;;;-144.05;66.22;56897.69;5091566;28;20423;-76
2023/04/22 05:34:35;;;;;;;5.55;3.30;;;10.90;99.90;;;-144.05;65.99;56893.44;5091635;28;20028;-75
2023/04/22 05:37:04;;;;;;;5.35;3.30;;;11.00;99.90;;;-144.05;65.78;56912.56;5091670;28;20031;-78
2023/04/22 05:39:30;;;;;;;6.35;3.47;;;11.10;99.90;;;-144.05;65.08;56914.69;5091473;28;20031;-74
2023/04/22 05:41:56;;;;;;;5.63;3.28;;;11.20;99.90;;;-144.05;64.76;56929.53;5091653;28;20079;-76
2023/04/22 05:44:22;;;;;;;5.25;2.95;;;11.30;99.90;;;-144.05;64.37;56887.06;5091392;28;20050;-76
2023/04/22 05:46:48;;;;;;;5.53;3.53;;;11.30;99.90;;;-144.05;64.17;56897.69;5090127;28;20468;-76
2023/04/22 05:49:13;;;;;;;5.50;3.55;;;11.30;99.90;;;-144.05;64.05;56906.19;5091510;28;20044;-77
2023/04/22 05:51:40;;;;;;;3.72;3.10;;;11.40;99.90;;;-144.05;63.81;56899.81;5091475;28;20024;-76
2023/04/22 05:54:06;;;;;;;4.13;3.28;;;11.50;99.90;;;-144.05;63.40;56914.69;5091687;28;20031;-76
2023/04/22 05:56:32;;;;;;;4.43;3.33;;;11.60;99.90;;;-144.05;63.21;56918.94;5091512;28;20380;-76
2023/04/22 05:58:58;;;;;;;4.78;3.22;;;11.70;99.90;;;-144.05;62.30;56887.06;5091271;28;20479;-76
2023/04/22 06:01:24;;;;;;;5.60;3.10;;;11.80;99.90;;;-144.05;61.83;56910.44;5091712;28;20301;-76
2023/04/22 06:03:50;;;;;;;4.13;2.97;;;11.90;99.90;;;-144.05;61.24;56895.56;5091626;28;20433;-76
2023/04/22 06:06:16;;;;;;;3.75;2.45;;;12.00;99.90;;;-144.05;61.01;56906.19;5091116;28;20032;-76
2023/04/22 06:08:42;;;;;;;6.22;2.72;;;12.10;99.90;;;-144.05;60.05;56906.19;5091234;28;20024;-76
2023/04/22 06:11:09;;;;;;;5.70;2.70;;;12.20;99.90;;;-144.05;59.62;56891.31;5091218;28;20174;-75
2023/04/22 06:13:34;;;;;;;4.40;2.50;;;12.30;99.90;;;-144.05;59.06;56904.06;5091308;28;20511;-76
2023/04/22 06:16:00;;;;;;;4.97;2.67;;;12.40;99.90;;;-144.05;58.90;56901.94;5091159;28;20036;-76
2023/04/22 06:18:26;;;;;;;4.63;2.42;;;12.50;99.90;;;-144.05;58.39;56908.31;5091352;28;20028;-74
2023/04/22 06:20:52;;;;;;;5.75;2.70;;;12.60;99.90;;;-144.05;58.27;56918.94;5073104;28;20060;-76
2023/04/22 06:23:18;;;;;;;8.05;2.88;;;12.70;99.90;;;-144.05;58.40;56895.56;5091326;28;20106;-76
2023/04/22 06:25:46;;;;;;;5.00;2.50;;;12.80;99.90;;;-144.05;58.26;56904.06;5091017;28;20594;-76
2023/04/22 06:28:11;;;;;;;3.95;2.33;;;12.90;99.90;;;-144.05;58.30;56882.81;5091123;28;20024;-76
2023/04/22 06:30:37;;;;;;;5.50;3.00;;;13.00;99.90;;;-144.05;57.99;56912.56;5091227;28;20095;-76
2023/04/22 06:33:03;;;;;;;4.13;2.30;;;13.10;99.90;;;-144.05;57.61;56904.06;5091545;28;20506;-75
2023/04/22 06:35:29;;;;;;;3.35;2.10;;;13.20;99.90;;;-144.05;57.34;56897.69;5089931;28;20039;-76
2023/04/22 06:37:55;;;;;;;5.43;2.72;;;13.30;99.90;;;-144.05;56.18;56878.56;5073114;28;20036;-76
2023/04/22 06:40:21;;;;;;;3.45;2.55;;;13.40;99.90;;;-144.05;55.62;56912.56;5091488;28;20028;-76
2023/04/22 06:42:46;;;;;;;4.72;2.70;;;13.60;99.90;;;-144.05;55.19;56880.69;5074586;28;20194;-76
2023/04/22 06:45:12;;;;;;;4.63;2.08;;;13.70;99.90;;;-144.05;54.82;56880.69;5093331;28;20040;-76
2023/04/22 06:47:41;;;;;;;3.55;2.20;;;13.80;99.90;;;-144.05;54.90;56897.69;5091720;28;20062;-72
2023/04/22 06:50:10;;;;;;;3.10;2.17;;;14.00;99.90;;;-144.05;54.92;56897.69;5091115;28;20032;-72
2023/04/22 06:52:36;;;;;;;5.07;2.38;;;14.20;99.90;;;-144.05;54.09;56904.06;5091021;28;20404;-75
2023/04/22 06:55:02;;;;;;;2.70;2.10;;;14.30;99.90;;;-144.05;53.53;56882.81;5089968;28;20077;-74
2023/04/22 06:57:29;;;;;;;4.03;2.38;;;14.50;99.90;;;-144.05;52.94;56893.44;5092653;28;20035;-77
2023/04/22 06:59:55;;;;;;;4.15;2.42;;;14.60;99.90;;;-144.05;52.80;56882.81;5090006;28;20035;-77
2023/04/22 07:02:21;;;;;;;3.72;2.38;;;14.70;99.90;;;-144.05;52.36;56908.31;5074209;28;20020;-78
2023/04/22 07:04:47;;;;;;;3.05;2.10;;;14.80;99.90;;;-144.05;52.46;56884.94;5090601;28;20024;-76
2023/04/22 07:07:13;;;;;;;3.92;2.25;;;15.00;99.90;;;-144.05;52.25;56910.44;5073791;28;20184;-77
2023/04/22 07:09:39;;;;;;;2.97;2.00;;;15.20;99.90;;;-144.05;51.09;56893.44;5090300;28;20115;-76
2023/04/22 07:12:05;;;;;;;2.80;2.22;;;15.40;99.90;;;-144.05;50.17;56884.94;5093264;28;20036;-76
2023/04/22 07:14:32;;;;;;;5.78;2.30;;;15.70;99.90;;;-144.05;49.86;56908.31;5094961;28;20391;-76
2023/04/22 07:16:59;;;;;;;4.22;2.22;;;16.00;99.90;;;-144.05;49.66;56908.31;5096358;28;20028;-76
2023/04/22 07:19:25;;;;;;;2.70;1.83;;;16.00;99.90;;;-144.05;48.46;56908.31;5095337;28;20345;-77
2023/04/22 07:21:51;;;;;;;2.95;1.80;;;16.00;99.90;;;-144.05;49.13;56891.31;5095518;28;20101;-76
2023/04/22 07:24:17;;;;;;;4.95;2.00;;;15.90;99.90;;;-144.05;49.11;56918.94;5077394;28;20024;-76
2023/04/22 07:26:44;;;;;;;2.00;1.70;;;15.80;99.90;;;-144.05;49.16;56912.56;5097372;28;20035;-79
2023/04/22 07:29:11;;;;;;;4.07;1.80;;;15.70;99.90;;;-144.05;49.59;56927.41;5093165;28;20025;-77
2023/04/22 07:31:37;;;;;;;4.13;2.00;;;15.90;99.90;;;-144.05;48.04;56897.69;5095787;28;20027;-77
2023/04/22 07:34:04;;;;;;;5.13;1.90;;;16.40;99.90;;;-144.05;46.16;56901.94;5098101;28;20138;-78
2023/04/22 07:36:32;;;;;;;3.40;1.75;;;16.90;99.90;;;-144.05;45.58;56912.56;5096077;28;20035;-79
2023/04/22 07:38:58;;;;;;;7.07;2.28;;;17.40;99.90;;;-144.05;44.86;56908.31;5095293;28;20061;-77
2023/04/22 07:41:25;;;;;;;3.40;1.73;;;17.90;99.90;;;-144.05;43.43;56921.06;5095834;28;20040;-77
2023/04/22 07:43:50;;;;;;;1.67;1.58;;;18.10;99.90;;;-144.05;43.22;56916.81;5096020;28;20028;-77
2023/04/22 07:46:16;;;;;;;3.30;1.65;;;18.30;99.90;;;-144.05;42.61;56906.19;5094831;28;20028;-76
2023/04/22 07:48:42;;;;;;;3.67;1.98;;;18.50;99.90;;;-144.05;42.27;56933.78;5094240;28;20016;-76
2023/04/22 07:51:08;;;;;;;2.70;1.40;;;18.60;99.90;;;-144.05;41.48;56918.94;5094012;28;20391;-77
2023/04/22 07:53:34;;;;;;;4.95;1.70;;;18.70;99.90;;;-144.05;42.50;56904.06;5094794;28;20036;-77
2023/04/22 07:56:03;;;;;;;3.33;1.90;;;18.60;99.90;;;-144.05;41.76;56904.06;5093337;28;20149;-76
2023/04/22 07:58:29;;;;;;;2.83;1.67;;;18.70;99.90;;;-144.05;41.67;56916.81;5094530;28;20277;-77
2023/04/22 08:00:55;;;;;;;2.42;1.55;;;18.80;99.90;;;-144.05;40.52;56929.53;5095651;28;20024;-77
2023/04/22 08:03:22;;;;;;;2.17;1.52;;;19.10;99.90;;;-144.05;39.62;56944.41;5095868;28;20115;-77
2023/04/22 08:05:48;;;;;;;4.05;1.17;;;19.40;99.90;;;-144.05;39.32;56925.28;5095101;28;20039;-78
2023/04/22 08:08:14;;;;;;;2.92;1.40;;;19.50;99.90;;;-144.05;39.69;56931.66;5094614;28;20024;-77
2023/04/22 08:10:40;;;;;;;2.75;1.85;;;19.60;99.90;;;-144.05;39.00;56933.78;5096124;28;20031;-76
2023/04/22 08:13:06;;;;;;;1.92;1.48;;;19.80;99.90;;;-144.05;39.47;56929.53;5094753;28;20111;-76
2023/04/22 08:15:32;;;;;;;1.40;1.30;;;19.50;99.90;;;-144.05;39.87;56940.16;5095106;28;20032;-77
2023/04/22 08:17:58;;;;;;;4.63;1.52;;;19.20;99.90;;;-144.05;40.50;56904.06;5095282;28;20032;-78
2023/04/22 08:20:24;;;;;;;2.58;1.40;;;18.90;99.90;;;-144.05;40.95;56955.03;5078111;28;20028;-77
2023/04/22 08:22:55;;;;;;;2.50;1.65;;;18.80;99.90;;;-144.05;40.88;56925.28;5096165;28;20074;-76
2023/04/22 08:25:22;;;;;;;2.95;1.35;;;18.80;99.90;;;-144.05;40.37;56925.28;5078374;28;20055;-77
2023/04/22 08:27:50;;;;;;;4.38;1.90;;;19.10;99.90;;;-144.05;39.05;56944.41;5092846;28;20024;-77
2023/04/22 08:30:16;;;;;;;3.45;1.90;;;19.30;99.90;;;-144.05;39.17;56931.66;5094788;28;20095;-77
2023/04/22 08:32:42;;;;;;;3.88;1.38;;;19.60;99.90;;;-144.05;38.82;56950.78;5096394;28;20483;-77
2023/04/22 08:35:09;;;;;;;1.92;1.45;;;19.80;99.90;;;-144.05;38.82;56925.28;5077753;28;20081;-77
2023/04/22 08:37:34;;;;;;;2.53;1.42;;;19.80;98.80;;;-144.05;38.82;56942.28;5095689;28;20051;-77
2023/04/22 08:40:01;;;;;;;4.40;1.35;;;19.90;99.30;;;-144.05;38.46;56923.19;5096414;28;20035;-77
2023/04/22 08:42:29;;;;;;;3.13;1.52;;;20.00;98.60;;;-144.05;38.80;56933.78;5095459;28;20056;-77
2023/04/22 08:44:58;;;;;;;2.67;1.40;;;20.00;98.10;;;-144.05;38.14;56935.91;5096048;28;20036;-75
2023/04/22 08:47:26;;;;;;;4.28;1.52;;;20.20;97.90;;;-144.05;37.70;56957.16;5077120;28;20036;-78
2023/04/22 08:49:55;;;;;;;1.67;1.33;;;20.40;96.80;;;-144.05;37.75;56946.53;5095651;28;20146;-77
2023/04/22 08:52:21;;;;;;;2.90;1.55;;;20.50;97.10;;;-144.05;37.29;56925.28;5095508;28;20031;-77
2023/04/22 08:54:47;;;;;;;1.98;1.20;;;20.40;95.60;;;-144.05;36.99;56933.78;5093970;28;20038;-77
2023/04/22 08:57:16;;;;;;;3.22;1.38;;;20.30;94.90;;;-144.05;37.34;56940.16;5095733;28;20213;-77
2023/04/22 08:59:42;;;;;;;3.08;1.50;;;20.60;95.90;;;-144.05;36.90;56933.78;5094993;28;20085;-77
2023/04/22 09:02:20;;;;;;;3.78;1.40;;;20.50;94.50;;;-144.05;37.66;56944.41;5095527;28;20036;-78
2023/04/22 09:04:52;;;;;;;2.63;1.35;;;20.70;96.10;;;-144.05;36.48;56963.53;5095075;28;20028;-77
2023/04/22 09:07:31;;;;;;;3.20;1.35;;;21.00;94.80;;;-144.05;36.89;56965.66;5096206;28;20024;-78
2023/04/22 09:09:58;;;;;;;3.10;1.40;;;20.90;94.50;;;-144.05;36.60;56961.41;5096396;28;20067;-78
2023/04/22 09:12:25;;;;;;;2.97;1.50;;;20.80;93.70;;;-144.05;37.03;56955.03;5078611;28;20027;-78
2023/04/22 09:14:53;;;;;;;4.35;1.45;;;20.80;94.10;;;-144.05;36.34;56965.66;5096472;28;20264;-78
2023/04/22 09:17:32;;;;;;;2.10;1.10;;;20.90;93.70;;;-144.05;36.42;56952.91;5095524;28;20088;-78
2023/04/22 09:20:01;;;;;;;2.17;1.48;;;21.00;92.70;;;-144.05;35.57;56955.03;5077923;28;20032;-77
2023/04/22 09:22:47;;;;;;;3.08;1.52;;;21.10;91.90;;;-144.05;36.32;56959.28;5095892;28;20028;-78
2023/04/22 09:25:25;;;;;;;2.15;1.10;;;21.40;93.20;;;-144.05;36.95;56967.78;5095123;28;20082;-77
2023/04/22 09:27:58;;;;;;;4.00;1.60;;;21.40;94.00;;;-144.05;36.75;56961.41;5077420;28;20039;-78
2023/04/22 09:30:36;;;;;;;2.10;1.45;;;21.30;93.30;;;-144.05;36.76;56950.78;5097182;28;20034;-78
2023/04/22 09:33:05;;;;;;;2.10;1.35;;;21.10;93.00;;;-144.05;36.32;56946.53;5079142;28;20024;-78
2023/04/22 09:35:40;;;;;;;2.72;1.55;;;20.90;92.00;;;-144.05;36.82;56961.41;5095313;28;20028;-78
2023/04/22 09:38:10;;;;;;;2.10;1.38;;;20.90;92.70;;;-144.05;36.65;56959.28;5095683;28;20039;-77
2023/04/22 09:40:43;;;;;;;2.03;1.50;;;21.00;92.20;;;-144.05;36.69;56974.16;5096279;28;20027;-79
2023/04/22 09:43:10;;;;;;;5.57;1.40;;;21.20;92.80;;;-144.05;36.09;56963.53;5097411;28;20024;-78
2023/04/22 09:45:41;;;;;;;5.18;1.92;;;21.10;90.90;;;-144.05;35.95;56978.41;5076811;28;20032;-78
2023/04/22 09:48:16;;;;;;;3.90;1.55;;;21.20;91.70;;;-144.05;35.92;56963.53;5110284;28;20032;-77
2023/04/22 09:50:50;;;;;;;2.63;1.58;;;21.20;90.80;;;-144.05;36.71;56969.91;5107828;28;20035;-77
2023/04/22 09:53:20;;;;;;;3.50;1.40;;;21.40;92.20;;;-144.05;35.83;56957.16;5107953;28;20094;-77
2023/04/22 09:55:53;;;;;;;4.20;1.50;;;21.50;90.70;;;-144.05;35.30;56959.28;5089194;28;20039;-76
2023/04/22 09:58:26;;;;;;;2.60;1.27;;;21.80;90.00;;;-144.05;36.09;56950.78;5109080;28;20023;-77
2023/04/22 10:01:02;;;;;;;2.10;1.33;;;21.80;90.70;;;-144.05;35.53;56986.91;5094437;28;20016;-77
2023/04/22 10:03:27;;;;;;;;;;;21.70;90.00;;;-144.05;35.48;56952.91;5094168;28;20403;-77
2023/04/22 10:05:53;;;;;;;2.72;1.40;;;21.50;90.00;;;-144.05;35.92;56972.03;5095047;28;19916;-77